sensor_id;sensor_type;location;lat;lon;timestamp;P1;durP1;ratioP1;P2;durP2;ratioP2
46563;SDS011;32291;52.010;4.446;2022-09-21T00:01:03;4.15;;;1.90;;
46563;SDS011;32291;52.010;4.446;2022-09-21T00:02:16;4.93;;;2.15;;
46563;SDS011;32291;52.010;4.446;2022-09-21T00:03:19;2.53;;;2.10;;
46563;SDS011;32291;52.010;4.446;2022-09-21T00:04:27;4.07;;;2.10;;
46563;SDS011;32291;52.010;4.446;2022-09-21T00:05:30;6.50;;;2.70;;
46563;SDS011;32291;52.010;4.446;2022-09-21T00:06:38;4.43;;;2.28;;
46563;SDS011;32291;52.010;4.446;2022-09-21T00:07:47;4.80;;;2.83;;
46563;SDS011;32291;52.010;4.446;2022-09-21T00:08:54;4.20;;;2.58;;
46563;SDS011;32291;52.010;4.446;2022-09-21T00:09:59;4.25;;;2.47;;
46563;SDS011;32291;52.010;4.446;2022-09-21T00:11:07;3.55;;;2.60;;
46563;SDS011;32291;52.010;4.446;2022-09-21T00:12:24;2.47;;;2.28;;
46563;SDS011;32291;52.010;4.446;2022-09-21T00:13:27;3.92;;;2.33;;
46563;SDS011;32291;52.010;4.446;2022-09-21T00:14:33;3.67;;;2.20;;
46563;SDS011;32291;52.010;4.446;2022-09-21T00:15:55;3.95;;;2.35;;
46563;SDS011;32291;52.010;4.446;2022-09-21T00:16:58;3.38;;;2.38;;
46563;SDS011;32291;52.010;4.446;2022-09-21T00:18:05;5.25;;;2.50;;
46563;SDS011;32291;52.010;4.446;2022-09-21T00:19:12;7.35;;;2.40;;
46563;SDS011;32291;52.010;4.446;2022-09-21T00:20:18;3.35;;;2.47;;
46563;SDS011;32291;52.010;4.446;2022-09-21T00:21:22;5.35;;;2.25;;
46563;SDS011;32291;52.010;4.446;2022-09-21T00:22:33;5.05;;;2.38;;
46563;SDS011;32291;52.010;4.446;2022-09-21T00:23:41;2.72;;;2.13;;
46563;SDS011;32291;52.010;4.446;2022-09-21T00:24:45;3.95;;;2.40;;
46563;SDS011;32291;52.010;4.446;2022-09-21T00:25:50;4.82;;;2.55;;
46563;SDS011;32291;52.010;4.446;2022-09-21T00:26:54;4.15;;;2.60;;
46563;SDS011;32291;52.010;4.446;2022-09-21T00:27:57;3.70;;;2.50;;
46563;SDS011;32291;52.010;4.446;2022-09-21T00:29:04;3.90;;;2.55;;
46563;SDS011;32291;52.010;4.446;2022-09-21T00:30:09;3.10;;;2.13;;
46563;SDS011;32291;52.010;4.446;2022-09-21T00:31:16;5.45;;;2.58;;
46563;SDS011;32291;52.010;4.446;2022-09-21T00:32:19;2.47;;;2.28;;
46563;SDS011;32291;52.010;4.446;2022-09-21T00:33:25;4.47;;;2.40;;
46563;SDS011;32291;52.010;4.446;2022-09-21T00:34:34;4.13;;;2.60;;
46563;SDS011;32291;52.010;4.446;2022-09-21T00:35:38;3.40;;;2.20;;
46563;SDS011;32291;52.010;4.446;2022-09-21T00:36:42;4.07;;;2.08;;
46563;SDS011;32291;52.010;4.446;2022-09-21T00:37:48;3.00;;;2.50;;
46563;SDS011;32291;52.010;4.446;2022-09-21T00:38:55;4.03;;;2.45;;
46563;SDS011;32291;52.010;4.446;2022-09-21T00:40:03;3.92;;;2.60;;
46563;SDS011;32291;52.010;4.446;2022-09-21T00:41:08;4.63;;;3.50;;
46563;SDS011;32291;52.010;4.446;2022-09-21T00:42:17;4.55;;;2.97;;
46563;SDS011;32291;52.010;4.446;2022-09-21T00:43:48;3.65;;;2.30;;
46563;SDS011;32291;52.010;4.446;2022-09-21T00:45:17;3.58;;;1.90;;
46563;SDS011;32291;52.010;4.446;2022-09-21T00:46:27;4.63;;;2.28;;
46563;SDS011;32291;52.010;4.446;2022-09-21T00:48:43;4.65;;;2.50;;
46563;SDS011;32291;52.010;4.446;2022-09-21T00:49:50;3.45;;;2.05;;
46563;SDS011;32291;52.010;4.446;2022-09-21T00:51:04;3.53;;;2.10;;
46563;SDS011;32291;52.010;4.446;2022-09-21T00:52:12;4.00;;;2.40;;
46563;SDS011;32291;52.010;4.446;2022-09-21T00:53:29;7.65;;;2.85;;
46563;SDS011;32291;52.010;4.446;2022-09-21T00:54:42;4.30;;;2.45;;
46563;SDS011;32291;52.010;4.446;2022-09-21T00:55:59;3.17;;;2.22;;
46563;SDS011;32291;52.010;4.446;2022-09-21T00:57:10;3.55;;;2.20;;
46563;SDS011;32291;52.010;4.446;2022-09-21T00:58:28;4.65;;;2.70;;
46563;SDS011;32291;52.010;4.446;2022-09-21T00:59:42;5.65;;;2.40;;
46563;SDS011;32291;52.010;4.446;2022-09-21T01:00:49;4.90;;;2.45;;
46563;SDS011;32291;52.010;4.446;2022-09-21T01:01:56;5.00;;;2.80;;
46563;SDS011;32291;52.010;4.446;2022-09-21T01:03:00;3.25;;;2.15;;
46563;SDS011;32291;52.010;4.446;2022-09-21T01:04:16;4.40;;;2.50;;
46563;SDS011;32291;52.010;4.446;2022-09-21T01:05:22;5.13;;;2.72;;
46563;SDS011;32291;52.010;4.446;2022-09-21T01:06:27;7.03;;;2.33;;
46563;SDS011;32291;52.010;4.446;2022-09-21T01:07:30;4.95;;;2.60;;
46563;SDS011;32291;52.010;4.446;2022-09-21T01:08:41;4.53;;;2.17;;
46563;SDS011;32291;52.010;4.446;2022-09-21T01:09:55;6.38;;;2.45;;
46563;SDS011;32291;52.010;4.446;2022-09-21T01:16:00;5.68;;;2.40;;
46563;SDS011;32291;52.010;4.446;2022-09-21T01:26:37;3.65;;;2.20;;
46563;SDS011;32291;52.010;4.446;2022-09-21T01:28:55;5.22;;;2.45;;
46563;SDS011;32291;52.010;4.446;2022-09-21T01:30:18;4.40;;;2.67;;
46563;SDS011;32291;52.010;4.446;2022-09-21T01:31:31;3.15;;;2.00;;
46563;SDS011;32291;52.010;4.446;2022-09-21T01:33:25;6.72;;;3.00;;
46563;SDS011;32291;52.010;4.446;2022-09-21T01:34:59;4.13;;;2.53;;
46563;SDS011;32291;52.010;4.446;2022-09-21T01:36:12;3.15;;;2.38;;
46563;SDS011;32291;52.010;4.446;2022-09-21T01:39:01;5.13;;;2.70;;
46563;SDS011;32291;52.010;4.446;2022-09-21T01:40:17;2.53;;;2.20;;
46563;SDS011;32291;52.010;4.446;2022-09-21T01:41:36;3.75;;;2.15;;
46563;SDS011;32291;52.010;4.446;2022-09-21T01:42:48;3.40;;;2.33;;
46563;SDS011;32291;52.010;4.446;2022-09-21T01:44:03;4.35;;;2.10;;
46563;SDS011;32291;52.010;4.446;2022-09-21T01:45:27;2.85;;;2.20;;
46563;SDS011;32291;52.010;4.446;2022-09-21T01:46:47;4.68;;;2.85;;
46563;SDS011;32291;52.010;4.446;2022-09-21T01:47:52;4.93;;;2.30;;
46563;SDS011;32291;52.010;4.446;2022-09-21T01:49:13;3.58;;;2.45;;
46563;SDS011;32291;52.010;4.446;2022-09-21T01:50:32;3.83;;;2.85;;
46563;SDS011;32291;52.010;4.446;2022-09-21T01:51:48;5.13;;;2.95;;
46563;SDS011;32291;52.010;4.446;2022-09-21T01:53:08;4.20;;;2.42;;
46563;SDS011;32291;52.010;4.446;2022-09-21T01:54:46;3.58;;;2.70;;
46563;SDS011;32291;52.010;4.446;2022-09-21T01:56:06;3.28;;;2.70;;
46563;SDS011;32291;52.010;4.446;2022-09-21T02:00:31;3.50;;;3.20;;
46563;SDS011;32291;52.010;4.446;2022-09-21T02:01:40;5.20;;;2.88;;
46563;SDS011;32291;52.010;4.446;2022-09-21T02:04:43;3.83;;;3.03;;
46563;SDS011;32291;52.010;4.446;2022-09-21T02:05:46;4.10;;;2.55;;
46563;SDS011;32291;52.010;4.446;2022-09-21T02:06:49;5.90;;;3.08;;
46563;SDS011;32291;52.010;4.446;2022-09-21T02:07:53;3.28;;;2.80;;
46563;SDS011;32291;52.010;4.446;2022-09-21T02:08:59;3.83;;;2.85;;
46563;SDS011;32291;52.010;4.446;2022-09-21T02:10:05;4.65;;;3.10;;
46563;SDS011;32291;52.010;4.446;2022-09-21T02:11:42;5.00;;;2.85;;
46563;SDS011;32291;52.010;4.446;2022-09-21T02:12:45;6.13;;;3.10;;
46563;SDS011;32291;52.010;4.446;2022-09-21T02:13:54;6.75;;;2.97;;
46563;SDS011;32291;52.010;4.446;2022-09-21T02:14:58;5.07;;;2.90;;
46563;SDS011;32291;52.010;4.446;2022-09-21T02:16:28;3.55;;;2.67;;
46563;SDS011;32291;52.010;4.446;2022-09-21T02:17:45;4.93;;;3.22;;
46563;SDS011;32291;52.010;4.446;2022-09-21T02:19:43;4.30;;;2.95;;
46563;SDS011;32291;52.010;4.446;2022-09-21T02:20:59;5.72;;;2.70;;
46563;SDS011;32291;52.010;4.446;2022-09-21T02:22:21;2.88;;;2.67;;
46563;SDS011;32291;52.010;4.446;2022-09-21T02:23:37;5.70;;;2.60;;
46563;SDS011;32291;52.010;4.446;2022-09-21T02:25:09;6.20;;;3.20;;
46563;SDS011;32291;52.010;4.446;2022-09-21T02:26:28;4.57;;;2.80;;
46563;SDS011;32291;52.010;4.446;2022-09-21T02:31:05;3.80;;;3.20;;
46563;SDS011;32291;52.010;4.446;2022-09-21T02:34:35;3.15;;;2.63;;
46563;SDS011;32291;52.010;4.446;2022-09-21T02:36:38;4.22;;;3.05;;
46563;SDS011;32291;52.010;4.446;2022-09-21T02:39:28;5.65;;;3.15;;
46563;SDS011;32291;52.010;4.446;2022-09-21T02:40:56;5.07;;;3.58;;
46563;SDS011;32291;52.010;4.446;2022-09-21T02:42:25;3.90;;;2.80;;
46563;SDS011;32291;52.010;4.446;2022-09-21T02:43:38;4.35;;;2.88;;
46563;SDS011;32291;52.010;4.446;2022-09-21T02:45:15;5.10;;;3.25;;
46563;SDS011;32291;52.010;4.446;2022-09-21T02:46:40;4.95;;;3.95;;
46563;SDS011;32291;52.010;4.446;2022-09-21T02:48:02;3.75;;;3.30;;
46563;SDS011;32291;52.010;4.446;2022-09-21T02:49:19;3.50;;;3.15;;
46563;SDS011;32291;52.010;4.446;2022-09-21T02:50:43;4.38;;;3.05;;
46563;SDS011;32291;52.010;4.446;2022-09-21T02:51:57;6.68;;;3.20;;
46563;SDS011;32291;52.010;4.446;2022-09-21T02:53:11;5.40;;;2.97;;
46563;SDS011;32291;52.010;4.446;2022-09-21T02:54:26;4.80;;;3.00;;
46563;SDS011;32291;52.010;4.446;2022-09-21T02:55:33;5.72;;;3.80;;
46563;SDS011;32291;52.010;4.446;2022-09-21T02:56:36;4.03;;;3.60;;
46563;SDS011;32291;52.010;4.446;2022-09-21T02:57:44;3.45;;;2.97;;
46563;SDS011;32291;52.010;4.446;2022-09-21T02:58:51;4.18;;;2.88;;
46563;SDS011;32291;52.010;4.446;2022-09-21T03:00:00;3.67;;;3.13;;
46563;SDS011;32291;52.010;4.446;2022-09-21T03:01:03;6.35;;;3.30;;
46563;SDS011;32291;52.010;4.446;2022-09-21T03:02:13;6.78;;;3.20;;
46563;SDS011;32291;52.010;4.446;2022-09-21T03:03:19;4.05;;;3.03;;
46563;SDS011;32291;52.010;4.446;2022-09-21T03:04:24;3.67;;;3.08;;
46563;SDS011;32291;52.010;4.446;2022-09-21T03:05:29;3.72;;;2.80;;
46563;SDS011;32291;52.010;4.446;2022-09-21T03:06:34;7.82;;;3.70;;
46563;SDS011;32291;52.010;4.446;2022-09-21T03:07:37;3.72;;;2.78;;
46563;SDS011;32291;52.010;4.446;2022-09-21T03:08:42;5.15;;;2.92;;
46563;SDS011;32291;52.010;4.446;2022-09-21T03:09:45;3.88;;;3.00;;
46563;SDS011;32291;52.010;4.446;2022-09-21T03:10:47;3.75;;;3.30;;
46563;SDS011;32291;52.010;4.446;2022-09-21T03:11:54;5.43;;;2.85;;
46563;SDS011;32291;52.010;4.446;2022-09-21T03:12:56;5.50;;;2.90;;
46563;SDS011;32291;52.010;4.446;2022-09-21T03:13:59;4.45;;;2.72;;
46563;SDS011;32291;52.010;4.446;2022-09-21T03:15:08;2.83;;;2.63;;
46563;SDS011;32291;52.010;4.446;2022-09-21T03:16:12;3.60;;;2.60;;
46563;SDS011;32291;52.010;4.446;2022-09-21T03:17:14;3.78;;;3.38;;
46563;SDS011;32291;52.010;4.446;2022-09-21T03:18:17;4.03;;;2.92;;
46563;SDS011;32291;52.010;4.446;2022-09-21T03:19:19;3.60;;;3.00;;
46563;SDS011;32291;52.010;4.446;2022-09-21T03:20:25;3.63;;;3.13;;
46563;SDS011;32291;52.010;4.446;2022-09-21T03:21:28;2.72;;;2.47;;
46563;SDS011;32291;52.010;4.446;2022-09-21T03:22:30;3.53;;;2.55;;
46563;SDS011;32291;52.010;4.446;2022-09-21T03:23:36;4.03;;;3.15;;
46563;SDS011;32291;52.010;4.446;2022-09-21T03:24:40;4.95;;;3.13;;
46563;SDS011;32291;52.010;4.446;2022-09-21T03:25:48;4.53;;;3.22;;
46563;SDS011;32291;52.010;4.446;2022-09-21T03:26:57;4.70;;;3.20;;
46563;SDS011;32291;52.010;4.446;2022-09-21T03:28:00;5.97;;;3.38;;
46563;SDS011;32291;52.010;4.446;2022-09-21T03:29:03;3.95;;;3.05;;
46563;SDS011;32291;52.010;4.446;2022-09-21T03:30:05;3.88;;;2.92;;
46563;SDS011;32291;52.010;4.446;2022-09-21T03:31:09;3.85;;;2.80;;
46563;SDS011;32291;52.010;4.446;2022-09-21T03:32:13;3.08;;;2.83;;
46563;SDS011;32291;52.010;4.446;2022-09-21T03:33:17;3.55;;;3.00;;
46563;SDS011;32291;52.010;4.446;2022-09-21T03:34:22;4.03;;;2.55;;
46563;SDS011;32291;52.010;4.446;2022-09-21T03:35:24;4.70;;;3.47;;
46563;SDS011;32291;52.010;4.446;2022-09-21T03:36:27;4.40;;;3.13;;
46563;SDS011;32291;52.010;4.446;2022-09-21T03:37:29;3.55;;;3.15;;
46563;SDS011;32291;52.010;4.446;2022-09-21T03:38:34;4.85;;;3.08;;
46563;SDS011;32291;52.010;4.446;2022-09-21T03:39:38;7.95;;;3.15;;
46563;SDS011;32291;52.010;4.446;2022-09-21T03:40:47;3.47;;;2.70;;
46563;SDS011;32291;52.010;4.446;2022-09-21T03:41:50;6.50;;;2.97;;
46563;SDS011;32291;52.010;4.446;2022-09-21T03:42:56;3.63;;;3.25;;
46563;SDS011;32291;52.010;4.446;2022-09-21T03:43:59;6.07;;;3.53;;
46563;SDS011;32291;52.010;4.446;2022-09-21T03:45:03;4.82;;;3.30;;
46563;SDS011;32291;52.010;4.446;2022-09-21T03:46:06;7.22;;;2.78;;
46563;SDS011;32291;52.010;4.446;2022-09-21T03:47:08;3.85;;;2.90;;
46563;SDS011;32291;52.010;4.446;2022-09-21T03:48:11;5.78;;;3.17;;
46563;SDS011;32291;52.010;4.446;2022-09-21T03:49:14;3.90;;;2.80;;
46563;SDS011;32291;52.010;4.446;2022-09-21T03:50:18;6.03;;;3.13;;
46563;SDS011;32291;52.010;4.446;2022-09-21T03:51:21;5.60;;;2.83;;
46563;SDS011;32291;52.010;4.446;2022-09-21T03:52:23;5.15;;;3.08;;
46563;SDS011;32291;52.010;4.446;2022-09-21T03:53:28;3.60;;;2.83;;
46563;SDS011;32291;52.010;4.446;2022-09-21T03:54:30;4.18;;;2.97;;
46563;SDS011;32291;52.010;4.446;2022-09-21T03:55:36;4.43;;;2.50;;
46563;SDS011;32291;52.010;4.446;2022-09-21T03:56:42;3.47;;;2.95;;
46563;SDS011;32291;52.010;4.446;2022-09-21T03:57:44;4.47;;;3.10;;
46563;SDS011;32291;52.010;4.446;2022-09-21T03:58:47;4.75;;;2.97;;
46563;SDS011;32291;52.010;4.446;2022-09-21T03:59:50;3.92;;;2.95;;
46563;SDS011;32291;52.010;4.446;2022-09-21T04:00:59;4.95;;;2.92;;
46563;SDS011;32291;52.010;4.446;2022-09-21T04:02:03;3.40;;;2.72;;
46563;SDS011;32291;52.010;4.446;2022-09-21T04:03:06;5.18;;;3.05;;
46563;SDS011;32291;52.010;4.446;2022-09-21T04:04:10;3.33;;;2.90;;
46563;SDS011;32291;52.010;4.446;2022-09-21T04:05:13;4.70;;;2.92;;
46563;SDS011;32291;52.010;4.446;2022-09-21T04:06:18;5.78;;;3.20;;
46563;SDS011;32291;52.010;4.446;2022-09-21T04:07:21;4.15;;;3.15;;
46563;SDS011;32291;52.010;4.446;2022-09-21T04:08:23;7.47;;;3.10;;
46563;SDS011;32291;52.010;4.446;2022-09-21T04:09:26;4.40;;;3.10;;
46563;SDS011;32291;52.010;4.446;2022-09-21T04:10:29;3.72;;;2.85;;
46563;SDS011;32291;52.010;4.446;2022-09-21T04:11:33;7.28;;;2.97;;
46563;SDS011;32291;52.010;4.446;2022-09-21T04:12:43;4.78;;;3.58;;
46563;SDS011;32291;52.010;4.446;2022-09-21T04:13:53;4.22;;;3.00;;
46563;SDS011;32291;52.010;4.446;2022-09-21T04:14:59;3.40;;;3.08;;
46563;SDS011;32291;52.010;4.446;2022-09-21T04:16:03;4.43;;;3.03;;
46563;SDS011;32291;52.010;4.446;2022-09-21T04:17:06;4.43;;;3.05;;
46563;SDS011;32291;52.010;4.446;2022-09-21T04:18:12;3.92;;;3.10;;
46563;SDS011;32291;52.010;4.446;2022-09-21T04:19:15;4.22;;;3.20;;
46563;SDS011;32291;52.010;4.446;2022-09-21T04:20:17;4.20;;;2.85;;
46563;SDS011;32291;52.010;4.446;2022-09-21T04:21:23;4.93;;;3.03;;
46563;SDS011;32291;52.010;4.446;2022-09-21T04:22:27;4.75;;;2.92;;
46563;SDS011;32291;52.010;4.446;2022-09-21T04:23:31;5.65;;;3.25;;
46563;SDS011;32291;52.010;4.446;2022-09-21T04:24:35;4.50;;;2.83;;
46563;SDS011;32291;52.010;4.446;2022-09-21T04:25:41;5.85;;;3.22;;
46563;SDS011;32291;52.010;4.446;2022-09-21T04:26:49;3.72;;;3.20;;
46563;SDS011;32291;52.010;4.446;2022-09-21T04:27:54;5.68;;;3.08;;
46563;SDS011;32291;52.010;4.446;2022-09-21T04:28:58;4.22;;;2.88;;
46563;SDS011;32291;52.010;4.446;2022-09-21T04:30:02;3.67;;;3.10;;
46563;SDS011;32291;52.010;4.446;2022-09-21T04:31:06;5.88;;;3.78;;
46563;SDS011;32291;52.010;4.446;2022-09-21T04:32:12;5.40;;;2.90;;
46563;SDS011;32291;52.010;4.446;2022-09-21T04:33:17;5.07;;;2.88;;
46563;SDS011;32291;52.010;4.446;2022-09-21T04:34:20;3.50;;;3.20;;
46563;SDS011;32291;52.010;4.446;2022-09-21T04:35:24;4.80;;;3.45;;
46563;SDS011;32291;52.010;4.446;2022-09-21T04:36:29;6.30;;;3.75;;
46563;SDS011;32291;52.010;4.446;2022-09-21T04:37:32;3.58;;;3.28;;
46563;SDS011;32291;52.010;4.446;2022-09-21T04:38:35;6.30;;;3.38;;
46563;SDS011;32291;52.010;4.446;2022-09-21T04:39:41;5.03;;;3.40;;
46563;SDS011;32291;52.010;4.446;2022-09-21T04:40:44;4.28;;;3.50;;
46563;SDS011;32291;52.010;4.446;2022-09-21T04:41:59;3.33;;;2.85;;
46563;SDS011;32291;52.010;4.446;2022-09-21T04:43:03;4.10;;;3.38;;
46563;SDS011;32291;52.010;4.446;2022-09-21T04:44:06;5.63;;;3.20;;
46563;SDS011;32291;52.010;4.446;2022-09-21T04:45:10;4.68;;;3.10;;
46563;SDS011;32291;52.010;4.446;2022-09-21T04:46:15;4.50;;;2.83;;
46563;SDS011;32291;52.010;4.446;2022-09-21T04:47:23;4.07;;;3.38;;
46563;SDS011;32291;52.010;4.446;2022-09-21T04:48:25;7.25;;;3.42;;
46563;SDS011;32291;52.010;4.446;2022-09-21T04:49:31;5.97;;;3.88;;
46563;SDS011;32291;52.010;4.446;2022-09-21T04:50:36;3.45;;;2.85;;
46563;SDS011;32291;52.010;4.446;2022-09-21T04:51:44;4.47;;;3.63;;
46563;SDS011;32291;52.010;4.446;2022-09-21T04:52:47;3.03;;;2.80;;
46563;SDS011;32291;52.010;4.446;2022-09-21T04:53:54;6.05;;;3.13;;
46563;SDS011;32291;52.010;4.446;2022-09-21T04:54:57;6.43;;;3.45;;
46563;SDS011;32291;52.010;4.446;2022-09-21T04:55:59;6.45;;;3.17;;
46563;SDS011;32291;52.010;4.446;2022-09-21T04:57:02;6.07;;;3.25;;
46563;SDS011;32291;52.010;4.446;2022-09-21T04:58:08;4.07;;;2.83;;
46563;SDS011;32291;52.010;4.446;2022-09-21T04:59:12;3.83;;;2.88;;
46563;SDS011;32291;52.010;4.446;2022-09-21T05:00:23;6.45;;;3.42;;
46563;SDS011;32291;52.010;4.446;2022-09-21T05:01:27;5.78;;;3.80;;
46563;SDS011;32291;52.010;4.446;2022-09-21T05:02:30;5.03;;;3.00;;
46563;SDS011;32291;52.010;4.446;2022-09-21T05:03:35;5.97;;;3.10;;
46563;SDS011;32291;52.010;4.446;2022-09-21T05:04:42;4.22;;;3.17;;
46563;SDS011;32291;52.010;4.446;2022-09-21T05:05:46;3.78;;;2.88;;
46563;SDS011;32291;52.010;4.446;2022-09-21T05:07:00;3.20;;;2.88;;
46563;SDS011;32291;52.010;4.446;2022-09-21T05:08:06;3.47;;;3.08;;
46563;SDS011;32291;52.010;4.446;2022-09-21T05:09:11;4.63;;;3.30;;
46563;SDS011;32291;52.010;4.446;2022-09-21T05:10:47;4.28;;;3.92;;
46563;SDS011;32291;52.010;4.446;2022-09-21T05:11:57;3.90;;;3.53;;
46563;SDS011;32291;52.010;4.446;2022-09-21T05:13:00;7.70;;;3.35;;
46563;SDS011;32291;52.010;4.446;2022-09-21T05:14:12;3.15;;;2.90;;
46563;SDS011;32291;52.010;4.446;2022-09-21T05:15:23;5.45;;;4.00;;
46563;SDS011;32291;52.010;4.446;2022-09-21T05:16:27;6.22;;;4.57;;
46563;SDS011;32291;52.010;4.446;2022-09-21T05:17:30;6.53;;;3.72;;
46563;SDS011;32291;52.010;4.446;2022-09-21T05:18:41;5.28;;;4.78;;
46563;SDS011;32291;52.010;4.446;2022-09-21T05:19:44;5.97;;;3.80;;
46563;SDS011;32291;52.010;4.446;2022-09-21T05:20:55;4.32;;;3.92;;
46563;SDS011;32291;52.010;4.446;2022-09-21T05:22:07;9.13;;;4.57;;
46563;SDS011;32291;52.010;4.446;2022-09-21T05:23:10;4.53;;;4.05;;
46563;SDS011;32291;52.010;4.446;2022-09-21T05:24:14;5.47;;;4.63;;
46563;SDS011;32291;52.010;4.446;2022-09-21T05:25:21;4.68;;;3.72;;
46563;SDS011;32291;52.010;4.446;2022-09-21T05:26:27;4.40;;;3.45;;
46563;SDS011;32291;52.010;4.446;2022-09-21T05:27:34;6.07;;;3.88;;
46563;SDS011;32291;52.010;4.446;2022-09-21T05:28:40;4.40;;;3.47;;
46563;SDS011;32291;52.010;4.446;2022-09-21T05:29:44;4.18;;;3.58;;
46563;SDS011;32291;52.010;4.446;2022-09-21T05:31:10;5.35;;;3.50;;
46563;SDS011;32291;52.010;4.446;2022-09-21T05:32:44;4.22;;;3.90;;
46563;SDS011;32291;52.010;4.446;2022-09-21T05:39:16;6.75;;;4.00;;
46563;SDS011;32291;52.010;4.446;2022-09-21T05:40:24;5.75;;;4.05;;
46563;SDS011;32291;52.010;4.446;2022-09-21T05:41:29;4.72;;;3.72;;
46563;SDS011;32291;52.010;4.446;2022-09-21T05:42:34;4.88;;;4.07;;
46563;SDS011;32291;52.010;4.446;2022-09-21T05:43:39;6.63;;;3.95;;
46563;SDS011;32291;52.010;4.446;2022-09-21T05:44:48;6.03;;;4.38;;
46563;SDS011;32291;52.010;4.446;2022-09-21T05:45:57;5.22;;;3.95;;
46563;SDS011;32291;52.010;4.446;2022-09-21T05:49:14;3.88;;;3.58;;
46563;SDS011;32291;52.010;4.446;2022-09-21T05:51:05;6.35;;;4.15;;
46563;SDS011;32291;52.010;4.446;2022-09-21T05:53:11;6.68;;;3.70;;
46563;SDS011;32291;52.010;4.446;2022-09-21T05:55:39;6.93;;;4.63;;
46563;SDS011;32291;52.010;4.446;2022-09-21T06:00:19;10.10;;;6.00;;
46563;SDS011;32291;52.010;4.446;2022-09-21T06:04:36;7.65;;;4.70;;
46563;SDS011;32291;52.010;4.446;2022-09-21T06:05:42;5.00;;;4.40;;
46563;SDS011;32291;52.010;4.446;2022-09-21T06:06:48;5.32;;;3.97;;
46563;SDS011;32291;52.010;4.446;2022-09-21T06:07:53;6.85;;;4.32;;
46563;SDS011;32291;52.010;4.446;2022-09-21T06:09:03;5.85;;;4.38;;
46563;SDS011;32291;52.010;4.446;2022-09-21T06:10:13;6.38;;;4.13;;
46563;SDS011;32291;52.010;4.446;2022-09-21T06:11:25;6.28;;;4.40;;
46563;SDS011;32291;52.010;4.446;2022-09-21T06:12:33;6.55;;;4.38;;
46563;SDS011;32291;52.010;4.446;2022-09-21T06:13:36;6.30;;;3.85;;
46563;SDS011;32291;52.010;4.446;2022-09-21T06:14:46;4.55;;;3.38;;
46563;SDS011;32291;52.010;4.446;2022-09-21T06:15:50;4.35;;;3.80;;
46563;SDS011;32291;52.010;4.446;2022-09-21T06:16:54;5.25;;;4.03;;
46563;SDS011;32291;52.010;4.446;2022-09-21T06:17:58;5.97;;;4.07;;
46563;SDS011;32291;52.010;4.446;2022-09-21T06:19:05;5.35;;;3.78;;
46563;SDS011;32291;52.010;4.446;2022-09-21T06:20:22;4.13;;;3.60;;
46563;SDS011;32291;52.010;4.446;2022-09-21T06:21:26;6.57;;;4.28;;
46563;SDS011;32291;52.010;4.446;2022-09-21T06:22:34;5.93;;;3.88;;
46563;SDS011;32291;52.010;4.446;2022-09-21T06:23:38;7.05;;;4.25;;
46563;SDS011;32291;52.010;4.446;2022-09-21T06:24:40;5.45;;;3.80;;
46563;SDS011;32291;52.010;4.446;2022-09-21T06:25:44;5.75;;;3.85;;
46563;SDS011;32291;52.010;4.446;2022-09-21T06:26:54;7.85;;;4.22;;
46563;SDS011;32291;52.010;4.446;2022-09-21T06:28:04;4.30;;;3.90;;
46563;SDS011;32291;52.010;4.446;2022-09-21T06:29:15;4.15;;;3.30;;
46563;SDS011;32291;52.010;4.446;2022-09-21T06:30:23;4.70;;;3.90;;
46563;SDS011;32291;52.010;4.446;2022-09-21T06:31:27;7.07;;;3.60;;
46563;SDS011;32291;52.010;4.446;2022-09-21T06:32:33;4.20;;;3.70;;
46563;SDS011;32291;52.010;4.446;2022-09-21T06:33:38;4.60;;;3.58;;
46563;SDS011;32291;52.010;4.446;2022-09-21T06:34:44;5.25;;;4.22;;
46563;SDS011;32291;52.010;4.446;2022-09-21T06:35:53;6.30;;;4.57;;
46563;SDS011;32291;52.010;4.446;2022-09-21T06:37:06;4.15;;;3.75;;
46563;SDS011;32291;52.010;4.446;2022-09-21T06:38:21;8.18;;;4.35;;
46563;SDS011;32291;52.010;4.446;2022-09-21T06:39:32;5.88;;;3.92;;
46563;SDS011;32291;52.010;4.446;2022-09-21T06:40:37;4.13;;;3.75;;
46563;SDS011;32291;52.010;4.446;2022-09-21T06:41:40;6.18;;;4.20;;
46563;SDS011;32291;52.010;4.446;2022-09-21T06:42:48;7.68;;;4.63;;
46563;SDS011;32291;52.010;4.446;2022-09-21T06:43:59;7.75;;;3.90;;
46563;SDS011;32291;52.010;4.446;2022-09-21T06:45:04;11.18;;;4.70;;
46563;SDS011;32291;52.010;4.446;2022-09-21T06:46:08;8.25;;;4.25;;
46563;SDS011;32291;52.010;4.446;2022-09-21T06:47:12;6.68;;;4.20;;
46563;SDS011;32291;52.010;4.446;2022-09-21T06:48:20;3.97;;;3.45;;
46563;SDS011;32291;52.010;4.446;2022-09-21T06:49:24;5.05;;;4.55;;
46563;SDS011;32291;52.010;4.446;2022-09-21T06:50:29;8.13;;;4.47;;
46563;SDS011;32291;52.010;4.446;2022-09-21T06:51:38;5.47;;;4.70;;
46563;SDS011;32291;52.010;4.446;2022-09-21T06:52:41;5.30;;;4.80;;
46563;SDS011;32291;52.010;4.446;2022-09-21T06:53:48;4.93;;;4.38;;
46563;SDS011;32291;52.010;4.446;2022-09-21T06:55:05;9.90;;;5.45;;
46563;SDS011;32291;52.010;4.446;2022-09-21T06:56:20;5.07;;;4.35;;
46563;SDS011;32291;52.010;4.446;2022-09-21T06:57:26;6.85;;;5.00;;
46563;SDS011;32291;52.010;4.446;2022-09-21T06:58:33;5.65;;;4.93;;
46563;SDS011;32291;52.010;4.446;2022-09-21T06:59:45;6.38;;;5.35;;
46563;SDS011;32291;52.010;4.446;2022-09-21T07:00:56;8.43;;;4.53;;
46563;SDS011;32291;52.010;4.446;2022-09-21T07:02:07;7.72;;;5.53;;
46563;SDS011;32291;52.010;4.446;2022-09-21T07:03:11;6.63;;;4.78;;
46563;SDS011;32291;52.010;4.446;2022-09-21T07:04:16;6.78;;;4.93;;
46563;SDS011;32291;52.010;4.446;2022-09-21T07:05:24;5.82;;;5.18;;
46563;SDS011;32291;52.010;4.446;2022-09-21T07:06:31;5.95;;;5.35;;
46563;SDS011;32291;52.010;4.446;2022-09-21T07:07:47;8.65;;;4.97;;
46563;SDS011;32291;52.010;4.446;2022-09-21T07:08:51;7.35;;;5.38;;
46563;SDS011;32291;52.010;4.446;2022-09-21T07:09:57;5.60;;;4.70;;
46563;SDS011;32291;52.010;4.446;2022-09-21T07:11:09;6.38;;;5.78;;
46563;SDS011;32291;52.010;4.446;2022-09-21T07:12:18;7.00;;;6.30;;
46563;SDS011;32291;52.010;4.446;2022-09-21T07:13:24;9.18;;;5.70;;
46563;SDS011;32291;52.010;4.446;2022-09-21T07:14:34;9.00;;;6.38;;
46563;SDS011;32291;52.010;4.446;2022-09-21T07:15:38;7.68;;;5.82;;
46563;SDS011;32291;52.010;4.446;2022-09-21T07:16:41;11.35;;;5.97;;
46563;SDS011;32291;52.010;4.446;2022-09-21T07:17:44;6.75;;;6.05;;
46563;SDS011;32291;52.010;4.446;2022-09-21T07:18:48;6.88;;;5.72;;
46563;SDS011;32291;52.010;4.446;2022-09-21T07:19:53;8.57;;;6.03;;
46563;SDS011;32291;52.010;4.446;2022-09-21T07:20:56;9.10;;;5.80;;
46563;SDS011;32291;52.010;4.446;2022-09-21T07:22:07;8.30;;;5.22;;
46563;SDS011;32291;52.010;4.446;2022-09-21T07:23:11;10.90;;;6.35;;
46563;SDS011;32291;52.010;4.446;2022-09-21T07:24:21;9.30;;;5.88;;
46563;SDS011;32291;52.010;4.446;2022-09-21T07:25:24;9.07;;;5.95;;
46563;SDS011;32291;52.010;4.446;2022-09-21T07:26:29;7.43;;;5.18;;
46563;SDS011;32291;52.010;4.446;2022-09-21T07:27:40;10.77;;;5.43;;
46563;SDS011;32291;52.010;4.446;2022-09-21T07:28:44;8.25;;;5.55;;
46563;SDS011;32291;52.010;4.446;2022-09-21T07:29:53;5.85;;;5.00;;
46563;SDS011;32291;52.010;4.446;2022-09-21T07:30:57;6.65;;;5.30;;
46563;SDS011;32291;52.010;4.446;2022-09-21T07:32:07;7.55;;;5.00;;
46563;SDS011;32291;52.010;4.446;2022-09-21T07:33:17;8.48;;;4.95;;
46563;SDS011;32291;52.010;4.446;2022-09-21T07:34:26;8.30;;;4.85;;
46563;SDS011;32291;52.010;4.446;2022-09-21T07:35:36;5.18;;;4.30;;
46563;SDS011;32291;52.010;4.446;2022-09-21T07:36:40;6.93;;;4.32;;
46563;SDS011;32291;52.010;4.446;2022-09-21T07:37:47;8.80;;;4.60;;
46563;SDS011;32291;52.010;4.446;2022-09-21T07:38:58;4.88;;;3.80;;
46563;SDS011;32291;52.010;4.446;2022-09-21T07:40:04;8.52;;;4.20;;
46563;SDS011;32291;52.010;4.446;2022-09-21T07:41:09;7.07;;;4.32;;
46563;SDS011;32291;52.010;4.446;2022-09-21T07:44:59;7.60;;;3.63;;